Time;durP1;ratioP1;P1;durP2;ratioP2;P2;SDS_P1;SDS_P2;PMS_P1;PMS_P2;Temp;Humidity;BMP_temperature;BMP_pressure;BME280_temperature;BME280_humidity;BME280_pressure;Samples;Min_cycle;Max_cycle;Signal;HPM_P1;HPM_P2
2023/12/21 00:01:51;;;;;;;11.00;10.60;;;7.70;99.90;;;;;;5111007;28;20206;-61
2023/12/21 00:04:17;;;;;;;10.90;10.50;;;7.70;99.90;;;;;;5113026;28;20779;-63
2023/12/21 00:06:44;;;;;;;10.57;10.17;;;7.80;99.90;;;;;;5112221;28;20209;-62
2023/12/21 00:09:11;;;;;;;11.10;10.70;;;7.70;99.90;;;;;;5114121;28;20232;-62
2023/12/21 00:11:38;;;;;;;10.87;10.47;;;7.80;99.90;;;;;;5119967;28;20205;-62
2023/12/21 00:14:05;;;;;;;10.60;10.20;;;7.80;99.90;;;;;;5120002;28;20225;-62
2023/12/21 00:16:31;;;;;;;10.90;10.50;;;7.80;99.90;;;;;;5117645;28;20206;-63
2023/12/21 00:18:59;;;;;;;10.83;10.43;;;7.80;99.90;;;;;;5114285;28;20233;-61
2023/12/21 00:21:26;;;;;;;11.27;10.87;;;7.80;99.90;;;;;;5111886;27;20198;-62
2023/12/21 00:23:53;;;;;;;10.87;10.47;;;7.80;99.90;;;;;;5114722;28;20222;-62
2023/12/21 00:26:20;;;;;;;10.93;10.53;;;7.90;99.90;;;;;;5112082;28;20591;-62
2023/12/21 00:28:46;;;;;;;10.97;10.57;;;7.80;99.90;;;;;;5112216;28;20229;-63
2023/12/21 00:31:13;;;;;;;11.30;10.90;;;7.80;99.90;;;;;;5113572;27;20285;-61
2023/12/21 00:33:40;;;;;;;11.53;11.13;;;7.80;99.90;;;;;;5112446;27;20206;-63
2023/12/21 00:36:08;;;;;;;11.07;10.67;;;7.80;99.90;;;;;;5116672;27;20198;-63
2023/12/21 00:38:35;;;;;;;10.93;10.53;;;7.80;99.90;;;;;;5112900;27;20228;-62
2023/12/21 00:41:01;;;;;;;11.40;11.00;;;7.80;99.90;;;;;;5114955;27;20217;-63
2023/12/21 00:43:28;;;;;;;11.03;10.63;;;7.80;99.90;;;;;;5117263;28;20205;-62
2023/12/21 00:45:55;;;;;;;11.30;10.90;;;7.80;99.90;;;;;;5112762;27;20696;-62
2023/12/21 00:48:22;;;;;;;11.70;11.30;;;7.80;99.90;;;;;;5109910;27;20228;-62
2023/12/21 00:50:48;;;;;;;11.53;11.13;;;7.80;99.90;;;;;;5119058;27;20194;-63
2023/12/21 00:53:17;;;;;;;11.47;11.07;;;7.80;99.90;;;;;;5115380;27;20236;-63
2023/12/21 00:55:44;;;;;;;11.63;11.23;;;7.80;99.90;;;;;;5115068;27;20303;-62
2023/12/21 00:58:11;;;;;;;11.70;11.30;;;7.80;99.90;;;;;;5111361;27;20206;-63
2023/12/21 01:00:38;;;;;;;11.10;10.70;;;7.80;99.90;;;;;;5110497;28;20210;-64
2023/12/21 01:03:05;;;;;;;11.77;11.37;;;7.70;99.90;;;;;;5110523;28;20582;-62
2023/12/21 01:05:32;;;;;;;11.50;11.10;;;7.70;99.90;;;;;;5113574;27;20229;-63
2023/12/21 01:07:59;;;;;;;11.47;11.07;;;7.80;99.90;;;;;;5110749;28;20284;-63
2023/12/21 01:10:27;;;;;;;11.80;11.40;;;7.80;99.90;;;;;;5111909;28;20201;-63
2023/12/21 01:12:54;;;;;;;11.23;10.83;;;7.80;99.90;;;;;;5109400;28;20209;-63
2023/12/21 01:15:21;;;;;;;11.10;10.70;;;7.80;99.90;;;;;;5107528;28;20203;-62
2023/12/21 01:17:47;;;;;;;11.37;10.97;;;7.80;99.90;;;;;;5113175;27;20248;-62
2023/12/21 01:20:14;;;;;;;11.13;10.73;;;7.90;99.90;;;;;;5116333;28;20221;-62
2023/12/21 01:22:41;;;;;;;11.80;11.40;;;7.90;99.90;;;;;;5127340;27;20213;-62
2023/12/21 01:25:08;;;;;;;11.30;10.90;;;7.90;99.90;;;;;;5117137;28;20680;-63
2023/12/21 01:27:36;;;;;;;12.07;11.67;;;8.00;99.90;;;;;;5118684;27;20197;-63
2023/12/21 01:30:03;;;;;;;11.30;10.90;;;8.00;99.90;;;;;;5110107;27;20578;-61
2023/12/21 01:32:30;;;;;;;11.23;10.83;;;8.00;99.90;;;;;;5116359;27;20213;-62
2023/12/21 01:34:56;;;;;;;11.50;11.10;;;8.00;99.90;;;;;;5115253;27;20591;-64
2023/12/21 01:37:23;;;;;;;11.50;11.10;;;8.00;99.90;;;;;;5113077;27;20202;-63
2023/12/21 01:39:50;;;;;;;11.70;11.30;;;8.00;99.90;;;;;;5114594;27;20221;-63
2023/12/21 01:42:16;;;;;;;11.30;10.90;;;8.10;99.90;;;;;;5110852;28;20639;-63
2023/12/21 01:44:43;;;;;;;11.10;10.70;;;8.10;99.90;;;;;;5109015;28;20708;-63
2023/12/21 01:47:11;;;;;;;12.07;11.67;;;8.10;99.90;;;;;;5111099;28;20550;-63
2023/12/21 01:49:38;;;;;;;10.63;10.33;;;8.00;99.90;;;;;;5113032;28;20230;-62
2023/12/21 01:52:05;;;;;;;11.40;11.00;;;8.00;99.90;;;;;;5113324;27;20198;-62
2023/12/21 01:54:32;;;;;;;10.77;10.37;;;8.00;99.90;;;;;;5110814;27;20198;-65
2023/12/21 01:56:59;;;;;;;11.43;11.03;;;8.00;99.90;;;;;;5109618;28;20206;-62
2023/12/21 01:59:27;;;;;;;11.30;10.90;;;8.00;99.90;;;;;;5112865;27;20594;-61
2023/12/21 02:01:56;;;;;;;10.87;10.47;;;8.00;99.90;;;;;;5112979;28;20229;-61
2023/12/21 02:04:23;;;;;;;11.13;10.73;;;8.10;99.90;;;;;;5107682;28;20621;-62
2023/12/21 02:06:50;;;;;;;11.17;10.77;;;8.10;99.90;;;;;;5106376;28;20209;-61
2023/12/21 02:09:17;;;;;;;11.00;10.60;;;8.10;99.90;;;;;;5107380;28;20238;-63
2023/12/21 02:11:43;;;;;;;11.60;11.20;;;8.10;99.90;;;;;;5112909;27;20230;-62
2023/12/21 02:14:10;;;;;;;11.13;10.73;;;8.10;99.90;;;;;;5120108;27;20198;-63
2023/12/21 02:16:43;;;;;;;11.87;11.47;;;8.10;99.90;;;;;;5123545;27;20678;-62
2023/12/21 02:19:12;;;;;;;11.80;11.40;;;8.10;99.90;;;;;;5121222;27;20222;-63
2023/12/21 02:21:42;;;;;;;11.37;10.97;;;8.20;99.90;;;;;;5121746;27;20208;-63
2023/12/21 02:24:14;;;;;;;11.40;11.00;;;8.20;99.90;;;;;;5121296;27;20206;-62
2023/12/21 02:26:41;;;;;;;11.80;11.40;;;8.20;99.90;;;;;;5121026;27;20209;-62
2023/12/21 02:29:08;;;;;;;11.00;10.60;;;8.20;99.90;;;;;;5125199;28;20222;-64
2023/12/21 02:31:34;;;;;;;11.10;10.70;;;8.20;99.90;;;;;;5120009;28;20271;-62
2023/12/21 02:34:01;;;;;;;11.90;11.50;;;8.20;99.90;;;;;;5119998;28;20197;-63
2023/12/21 02:36:28;;;;;;;12.10;11.70;;;8.20;99.90;;;;;;5122766;28;20555;-60
2023/12/21 02:38:54;;;;;;;11.67;11.27;;;8.20;99.90;;;;;;5115120;27;20229;-62
2023/12/21 02:41:22;;;;;;;12.40;11.97;;;8.20;99.90;;;;;;5108664;28;20652;-62
2023/12/21 02:43:49;;;;;;;11.23;10.83;;;8.20;99.90;;;;;;5111707;28;20210;-63
2023/12/21 02:46:16;;;;;;;11.23;10.83;;;8.20;99.90;;;;;;5111240;28;20214;-63
2023/12/21 02:48:42;;;;;;;11.40;11.00;;;8.20;99.90;;;;;;5111129;28;20226;-62
2023/12/21 02:51:09;;;;;;;11.40;11.00;;;8.20;99.90;;;;;;5108959;28;20202;-63
2023/12/21 02:53:36;;;;;;;10.33;10.03;;;8.20;99.90;;;;;;5109310;28;20210;-63
2023/12/21 02:56:03;;;;;;;11.60;11.20;;;8.20;99.90;;;;;;5110958;28;20201;-63
2023/12/21 02:58:31;;;;;;;11.70;11.30;;;8.20;99.90;;;;;;5114798;28;20221;-62
2023/12/21 03:00:57;;;;;;;11.23;10.83;;;8.20;99.90;;;;;;5110154;28;20205;-62
2023/12/21 03:03:24;;;;;;;11.50;11.10;;;8.20;99.90;;;;;;5110650;28;20198;-63
2023/12/21 03:05:51;;;;;;;11.53;11.13;;;8.20;99.90;;;;;;5124796;28;20221;-62
2023/12/21 03:08:17;;;;;;;11.82;11.43;;;8.20;99.90;;;;;;5111406;28;20233;-62
2023/12/21 03:10:44;;;;;;;10.97;10.57;;;8.20;99.90;;;;;;5110084;28;20240;-62
2023/12/21 03:13:11;;;;;;;11.43;11.03;;;8.20;99.90;;;;;;5110711;28;20582;-64
2023/12/21 03:15:39;;;;;;;10.90;10.50;;;8.30;99.90;;;;;;5113144;28;20210;-62
2023/12/21 03:18:06;;;;;;;11.23;10.83;;;8.30;99.90;;;;;;5114681;28;20206;-63
2023/12/21 03:20:33;;;;;;;11.63;11.23;;;8.40;99.90;;;;;;5120137;28;20212;-63
2023/12/21 03:23:01;;;;;;;11.27;10.87;;;8.40;99.90;;;;;;5118593;28;20198;-62
2023/12/21 03:25:27;;;;;;;10.93;10.53;;;8.40;99.90;;;;;;5118786;28;20218;-64
2023/12/21 03:27:54;;;;;;;10.93;10.53;;;8.50;99.90;;;;;;5117453;28;20225;-62
2023/12/21 03:30:21;;;;;;;11.57;11.17;;;8.50;99.90;;;;;;5121767;27;20197;-65
2023/12/21 03:32:49;;;;;;;11.20;10.80;;;8.50;99.90;;;;;;5116310;28;20214;-62
2023/12/21 03:35:16;;;;;;;11.50;11.10;;;8.50;99.90;;;;;;5115626;28;20198;-62
2023/12/21 03:37:42;;;;;;;11.57;11.17;;;8.50;99.90;;;;;;5108968;28;20676;-64
2023/12/21 03:40:09;;;;;;;11.15;10.75;;;8.50;99.90;;;;;;5111438;28;20233;-64
2023/12/21 03:42:36;;;;;;;11.30;10.90;;;8.50;99.90;;;;;;5108128;28;20205;-64
2023/12/21 03:45:03;;;;;;;10.80;10.40;;;8.50;99.90;;;;;;5113160;28;20217;-63
2023/12/21 03:47:30;;;;;;;10.60;10.23;;;8.60;99.90;;;;;;5114534;28;20225;-62
2023/12/21 03:49:58;;;;;;;10.93;10.53;;;8.60;99.90;;;;;;5115519;28;20225;-63
2023/12/21 03:52:25;;;;;;;11.47;11.07;;;8.60;99.90;;;;;;5116962;28;20656;-63
2023/12/21 03:54:51;;;;;;;11.10;10.70;;;8.60;99.90;;;;;;5115823;28;20198;-62
2023/12/21 03:57:18;;;;;;;10.93;10.53;;;8.70;99.90;;;;;;5115285;28;20205;-63
2023/12/21 03:59:45;;;;;;;11.17;10.77;;;8.70;99.90;;;;;;5113820;28;20226;-62
2023/12/21 04:02:12;;;;;;;11.10;10.70;;;8.70;99.90;;;;;;5114387;28;20554;-61
2023/12/21 04:04:38;;;;;;;11.67;11.27;;;8.70;99.90;;;;;;5112515;28;20197;-63
2023/12/21 04:07:06;;;;;;;11.20;10.80;;;8.70;99.90;;;;;;5111251;28;20205;-62
2023/12/21 04:09:33;;;;;;;10.80;10.40;;;8.70;99.90;;;;;;5110858;28;20236;-63
2023/12/21 04:12:00;;;;;;;11.37;10.97;;;8.70;99.90;;;;;;5109689;28;20225;-62
2023/12/21 04:14:27;;;;;;;11.20;10.80;;;8.70;99.90;;;;;;5110354;28;20913;-63
2023/12/21 04:16:53;;;;;;;11.27;10.87;;;8.70;99.90;;;;;;5110528;28;20220;-63
2023/12/21 04:19:20;;;;;;;10.60;10.27;;;8.70;99.90;;;;;;5110828;28;20218;-65
2023/12/21 04:21:47;;;;;;;11.67;11.27;;;8.80;99.90;;;;;;5109223;28;20645;-62
2023/12/21 04:24:16;;;;;;;11.63;11.23;;;8.70;99.90;;;;;;5110566;28;20212;-63
2023/12/21 04:26:42;;;;;;;11.70;11.30;;;8.70;99.90;;;;;;5108997;28;20234;-63
2023/12/21 04:29:09;;;;;;;11.73;11.32;;;8.70;99.90;;;;;;5109912;28;20715;-62
2023/12/21 04:31:37;;;;;;;11.67;11.27;;;8.70;99.90;;;;;;5109863;28;20202;-63
2023/12/21 04:34:05;;;;;;;12.77;12.37;;;8.70;99.90;;;;;;5106855;28;20206;-63
2023/12/21 04:36:32;;;;;;;11.60;11.20;;;8.60;99.90;;;;;;5121286;27;20189;-63
2023/12/21 04:38:58;;;;;;;12.27;11.87;;;8.60;99.90;;;;;;5120970;27;20222;-62
2023/12/21 04:41:26;;;;;;;12.33;11.93;;;8.60;99.90;;;;;;5124096;27;20201;-64
2023/12/21 04:43:53;;;;;;;11.27;10.87;;;8.70;99.90;;;;;;5119605;27;20205;-63
2023/12/21 04:46:20;;;;;;;11.07;10.67;;;8.70;99.90;;;;;;5123322;27;20557;-63
2023/12/21 04:48:47;;;;;;;10.83;10.43;;;8.70;99.90;;;;;;5135487;27;20218;-63
2023/12/21 04:51:17;;;;;;;11.47;11.07;;;8.70;99.90;;;;;;5126506;27;20233;-63
2023/12/21 04:53:43;;;;;;;11.63;11.23;;;8.70;99.90;;;;;;5126934;27;20201;-63
2023/12/21 04:56:10;;;;;;;11.07;10.67;;;8.70;99.90;;;;;;5123935;27;20270;-63
2023/12/21 04:58:40;;;;;;;11.33;10.93;;;8.80;99.90;;;;;;5128544;27;20216;-64
2023/12/21 05:01:07;;;;;;;11.63;11.23;;;8.80;99.90;;;;;;5127681;27;20209;-62
2023/12/21 05:03:34;;;;;;;11.80;11.40;;;8.90;99.90;;;;;;5127382;27;20631;-63
2023/12/21 05:06:01;;;;;;;11.30;10.90;;;8.90;99.90;;;;;;5123872;27;20217;-63
2023/12/21 05:08:28;;;;;;;11.37;10.97;;;8.90;99.90;;;;;;5127248;27;20244;-63
2023/12/21 05:10:55;;;;;;;11.67;11.27;;;8.90;99.90;;;;;;5124039;27;20216;-63
2023/12/21 05:13:22;;;;;;;11.30;10.90;;;8.90;99.90;;;;;;5127393;27;20193;-63
2023/12/21 05:15:50;;;;;;;11.37;10.97;;;8.90;99.90;;;;;;5129426;27;20201;-63
2023/12/21 05:18:16;;;;;;;11.23;10.83;;;8.90;99.90;;;;;;5125287;27;20229;-63
2023/12/21 05:20:43;;;;;;;11.70;11.30;;;8.90;99.90;;;;;;5125355;27;20237;-62
2023/12/21 05:23:10;;;;;;;10.87;10.47;;;8.90;99.90;;;;;;5119706;27;20202;-63
2023/12/21 05:25:37;;;;;;;11.53;11.13;;;8.90;99.90;;;;;;5125597;27;20320;-63
2023/12/21 05:28:04;;;;;;;11.37;10.97;;;8.90;99.90;;;;;;5124967;27;20209;-62
2023/12/21 05:30:30;;;;;;;11.53;11.13;;;9.00;99.90;;;;;;5128339;27;20209;-63
2023/12/21 05:32:58;;;;;;;10.70;10.40;;;9.00;99.90;;;;;;5124423;27;20595;-62
2023/12/21 05:35:26;;;;;;;12.23;11.83;;;9.20;99.90;;;;;;5121393;27;20197;-63
2023/12/21 05:37:52;;;;;;;11.27;10.87;;;9.00;99.90;;;;;;5120422;27;20221;-63
2023/12/21 05:40:22;;;;;;;12.00;11.60;;;9.00;99.90;;;;;;5123218;27;20202;-63
2023/12/21 05:42:48;;;;;;;11.63;11.23;;;9.00;99.90;;;;;;5125298;27;20206;-63
2023/12/21 05:45:15;;;;;;;11.63;11.23;;;9.00;99.90;;;;;;5128933;27;20206;-63
2023/12/21 05:47:42;;;;;;;12.33;11.93;;;9.10;99.90;;;;;;5123081;27;20214;-63
2023/12/21 05:50:11;;;;;;;11.80;11.40;;;9.00;99.90;;;;;;5120374;27;20218;-62
2023/12/21 05:52:38;;;;;;;11.53;11.13;;;9.00;99.90;;;;;;5125259;27;20205;-63
2023/12/21 05:55:05;;;;;;;11.80;11.40;;;9.10;99.90;;;;;;5134180;27;20205;-62
2023/12/21 05:57:32;;;;;;;12.00;11.60;;;9.00;99.90;;;;;;5143814;27;20225;-63
2023/12/21 05:59:58;;;;;;;12.30;11.90;;;9.10;99.90;;;;;;5141982;27;20232;-64
2023/12/21 06:02:25;;;;;;;12.33;11.93;;;9.10;99.90;;;;;;5129482;27;20213;-64
2023/12/21 06:04:52;;;;;;;12.13;11.73;;;9.20;99.90;;;;;;5132671;27;20209;-65
2023/12/21 06:07:20;;;;;;;11.93;11.53;;;9.30;99.90;;;;;;5137930;27;20228;-64
2023/12/21 06:09:47;;;;;;;11.33;10.93;;;9.30;99.90;;;;;;5129205;27;20226;-64
2023/12/21 06:12:14;;;;;;;12.20;11.80;;;9.30;99.90;;;;;;5126074;27;20233;-65
2023/12/21 06:14:40;;;;;;;12.07;11.67;;;9.30;99.90;;;;;;5127466;27;20205;-65
2023/12/21 06:17:07;;;;;;;12.10;11.70;;;9.20;99.90;;;;;;5124186;27;20669;-64
2023/12/21 06:19:34;;;;;;;12.90;12.50;;;9.20;99.90;;;;;;5121622;27;20464;-66
2023/12/21 06:22:01;;;;;;;12.87;12.47;;;9.20;99.90;;;;;;5105856;27;20202;-65
2023/12/21 06:24:29;;;;;;;12.07;11.67;;;9.20;99.90;;;;;;5106380;27;20202;-65
2023/12/21 06:26:55;;;;;;;12.27;11.87;;;9.20;99.90;;;;;;5108426;27;20223;-65
2023/12/21 06:29:22;;;;;;;12.48;12.07;;;9.20;99.90;;;;;;5115447;27;20225;-65
2023/12/21 06:31:49;;;;;;;12.53;12.13;;;9.30;99.90;;;;;;5131569;27;20201;-66
2023/12/21 06:34:15;;;;;;;12.40;12.00;;;9.30;99.90;;;;;;5134547;27;20206;-65
2023/12/21 06:36:42;;;;;;;11.67;11.27;;;9.30;99.90;;;;;;5123530;27;20211;-66
2023/12/21 06:39:09;;;;;;;11.90;11.50;;;9.30;99.90;;;;;;5123051;27;20217;-67
2023/12/21 06:41:37;;;;;;;13.17;12.70;;;9.30;99.90;;;;;;5122549;27;20206;-66
2023/12/21 06:44:04;;;;;;;12.27;11.88;;;9.30;99.90;;;;;;5125540;27;20771;-66
2023/12/21 06:46:31;;;;;;;11.97;11.57;;;9.30;99.90;;;;;;5122835;27;20214;-65
2023/12/21 06:48:58;;;;;;;12.20;11.80;;;9.40;99.90;;;;;;5115502;27;20248;-63
2023/12/21 06:51:24;;;;;;;14.20;13.70;;;9.40;99.90;;;;;;5121331;27;20603;-64
2023/12/21 06:53:51;;;;;;;12.50;12.10;;;9.40;99.90;;;;;;5124865;27;20205;-64
2023/12/21 06:56:18;;;;;;;12.03;11.63;;;9.40;99.90;;;;;;5121018;27;20201;-66
2023/12/21 06:58:46;;;;;;;12.30;11.90;;;9.50;99.90;;;;;;5124932;27;20227;-65
2023/12/21 07:01:13;;;;;;;13.10;12.50;;;9.50;99.90;;;;;;5118987;27;20217;-64
2023/12/21 07:03:39;;;;;;;11.80;11.40;;;9.50;99.90;;;;;;5118239;27;20202;-66
2023/12/21 07:06:09;;;;;;;12.27;11.87;;;9.40;99.90;;;;;;5119350;27;20225;-65
2023/12/21 07:08:35;;;;;;;12.23;11.83;;;9.40;99.90;;;;;;5116287;27;20244;-65
2023/12/21 07:11:02;;;;;;;12.10;11.70;;;9.50;99.90;;;;;;5115569;27;20225;-66
2023/12/21 07:13:29;;;;;;;12.10;11.70;;;9.50;99.90;;;;;;5112121;28;20209;-66
2023/12/21 07:15:57;;;;;;;12.63;12.23;;;9.50;99.90;;;;;;5118026;27;20581;-65
2023/12/21 07:18:24;;;;;;;12.60;12.20;;;9.50;99.90;;;;;;5111904;27;20236;-66
2023/12/21 07:20:50;;;;;;;12.10;11.70;;;9.50;99.90;;;;;;5119131;27;20205;-66
2023/12/21 07:23:17;;;;;;;12.00;11.60;;;9.60;99.90;;;;;;5120961;27;20206;-64
2023/12/21 07:25:44;;;;;;;11.80;11.40;;;9.60;99.90;;;;;;5117886;27;20209;-65
2023/12/21 07:28:10;;;;;;;11.73;11.33;;;9.60;99.90;;;;;;5117016;27;20251;-64
2023/12/21 07:30:37;;;;;;;12.43;12.03;;;9.60;99.90;;;;;;5121971;27;20210;-65
2023/12/21 07:33:05;;;;;;;11.80;11.40;;;9.60;99.90;;;;;;5127101;27;20205;-65
2023/12/21 07:35:32;;;;;;;12.40;12.00;;;9.60;99.90;;;;;;5121785;27;20214;-65
2023/12/21 07:37:59;;;;;;;12.67;12.27;;;9.60;99.90;;;;;;5122585;28;20198;-66
2023/12/21 07:40:26;;;;;;;12.30;11.90;;;9.60;99.90;;;;;;5121922;28;20217;-65
2023/12/21 07:42:52;;;;;;;11.60;11.20;;;9.60;99.90;;;;;;5113967;28;20197;-66
2023/12/21 07:45:19;;;;;;;12.43;12.03;;;9.60;99.90;;;;;;5114182;27;20213;-66
2023/12/21 07:47:46;;;;;;;13.93;13.43;;;9.70;99.90;;;;;;5113081;27;20232;-65
2023/12/21 07:50:14;;;;;;;12.70;12.30;;;9.60;99.90;;;;;;5114774;28;20722;-67
2023/12/21 07:52:41;;;;;;;12.30;11.90;;;9.60;99.90;;;;;;5126452;27;20213;-67
2023/12/21 07:55:08;;;;;;;12.50;12.10;;;9.60;99.90;;;;;;5124615;27;20212;-65
2023/12/21 07:57:35;;;;;;;12.30;11.90;;;9.60;99.90;;;;;;5127645;28;20201;-65
2023/12/21 08:00:03;;;;;;;12.47;12.07;;;9.70;99.90;;;;;;5126202;28;20225;-65
2023/12/21 08:02:29;;;;;;;12.30;11.90;;;9.70;99.90;;;;;;5123927;27;20258;-65
2023/12/21 08:04:56;;;;;;;11.97;11.57;;;9.70;99.90;;;;;;5113742;28;20205;-66
2023/12/21 08:07:24;;;;;;;12.20;11.80;;;9.70;99.90;;;;;;5108421;28;20218;-65
2023/12/21 08:09:51;;;;;;;11.67;11.27;;;9.70;99.90;;;;;;5118300;28;20225;-64
2023/12/21 08:12:18;;;;;;;11.97;11.57;;;9.70;99.90;;;;;;5108927;28;20313;-64
2023/12/21 08:14:44;;;;;;;12.07;11.67;;;9.80;99.90;;;;;;5120525;28;20229;-65
2023/12/21 08:17:13;;;;;;;12.23;11.83;;;9.70;99.90;;;;;;5117090;28;20202;-64
2023/12/21 08:19:39;;;;;;;11.80;11.40;;;9.70;99.90;;;;;;5126469;27;20617;-64
2023/12/21 08:22:06;;;;;;;12.30;11.90;;;9.70;99.90;;;;;;5122343;27;20206;-64
2023/12/21 08:24:34;;;;;;;12.23;11.83;;;9.70;99.90;;;;;;5131427;27;20203;-65
2023/12/21 08:27:01;;;;;;;11.80;11.40;;;9.80;99.90;;;;;;5129174;27;20270;-65
2023/12/21 08:29:28;;;;;;;12.23;11.83;;;9.70;99.90;;;;;;5133102;27;20722;-65
2023/12/21 08:31:55;;;;;;;11.87;11.47;;;9.70;99.90;;;;;;5129486;27;20206;-65
2023/12/21 08:34:22;;;;;;;12.23;11.83;;;9.70;99.90;;;;;;5136308;27;20202;-65
2023/12/21 08:36:50;;;;;;;11.83;11.43;;;9.70;99.90;;;;;;5125284;27;20270;-65
2023/12/21 08:39:17;;;;;;;11.83;11.43;;;9.70;99.90;;;;;;5129691;27;20226;-66
2023/12/21 08:41:45;;;;;;;12.40;12.00;;;9.80;99.90;;;;;;5112667;27;20632;-66
2023/12/21 08:44:11;;;;;;;12.10;11.70;;;9.80;99.90;;;;;;5117523;27;20202;-65
2023/12/21 08:46:42;;;;;;;12.20;11.80;;;9.80;99.90;;;;;;5114056;27;20228;-65
2023/12/21 08:49:11;;;;;;;13.53;12.87;;;9.80;99.90;;;;;;5116205;27;20724;-65
2023/12/21 08:51:38;;;;;;;12.90;12.50;;;9.80;99.90;;;;;;5122935;27;20321;-65
2023/12/21 08:54:06;;;;;;;12.07;11.67;;;9.80;99.90;;;;;;5125308;27;20239;-66
2023/12/21 08:56:33;;;;;;;11.93;11.53;;;9.80;99.90;;;;;;5126944;27;20190;-66
2023/12/21 08:59:02;;;;;;;11.80;11.40;;;9.80;99.90;;;;;;5127481;27;20222;-65
2023/12/21 09:01:30;;;;;;;12.53;12.13;;;9.80;99.90;;;;;;5132697;27;20696;-65
2023/12/21 09:03:58;;;;;;;11.73;11.33;;;9.80;99.90;;;;;;5131159;27;20458;-65
2023/12/21 09:06:24;;;;;;;12.47;12.07;;;9.80;99.90;;;;;;5129333;28;20208;-66
2023/12/21 09:08:51;;;;;;;12.40;12.00;;;9.80;99.90;;;;;;5132566;28;20226;-66
2023/12/21 09:11:18;;;;;;;11.83;11.43;;;9.80;99.90;;;;;;5130652;28;20218;-65
2023/12/21 09:13:44;;;;;;;11.70;11.30;;;9.90;99.90;;;;;;5127364;28;20215;-65
2023/12/21 09:16:14;;;;;;;12.43;12.03;;;9.80;99.90;;;;;;5133298;27;20202;-65
2023/12/21 09:18:43;;;;;;;12.18;11.77;;;9.90;99.90;;;;;;5137902;27;20236;-66
2023/12/21 09:21:11;;;;;;;12.23;11.83;;;9.90;99.90;;;;;;5136030;27;20209;-66
2023/12/21 09:23:37;;;;;;;11.73;11.33;;;9.90;99.90;;;;;;5127009;27;20297;-65
2023/12/21 09:26:04;;;;;;;11.73;11.33;;;9.90;99.90;;;;;;5118960;27;20210;-66
2023/12/21 09:28:31;;;;;;;12.07;11.67;;;10.00;99.90;;;;;;5112553;27;20233;-65
2023/12/21 09:30:58;;;;;;;11.57;11.17;;;10.00;99.90;;;;;;5119930;27;20198;-66
2023/12/21 09:33:26;;;;;;;11.70;11.30;;;10.00;99.90;;;;;;5107068;27;20210;-66
2023/12/21 09:35:55;;;;;;;11.70;11.30;;;10.10;99.90;;;;;;5119214;27;20285;-65
2023/12/21 09:38:21;;;;;;;11.00;10.60;;;10.10;99.90;;;;;;5115640;28;20271;-65
2023/12/21 09:40:48;;;;;;;11.53;11.13;;;10.10;99.90;;;;;;5115047;27;20221;-65
2023/12/21 09:43:18;;;;;;;11.33;10.93;;;10.10;99.90;;;;;;5109492;28;20214;-66
2023/12/21 09:45:47;;;;;;;11.20;10.80;;;10.10;99.90;;;;;;5109778;28;20235;-66
2023/12/21 09:48:15;;;;;;;11.43;11.03;;;10.20;99.90;;;;;;5109793;28;20210;-65
2023/12/21 09:50:44;;;;;;;11.10;10.70;;;10.10;99.90;;;;;;5117332;27;20611;-66
2023/12/21 09:53:12;;;;;;;11.40;11.00;;;10.20;99.90;;;;;;5113960;27;20206;-65
2023/12/21 09:55:40;;;;;;;11.23;10.83;;;10.20;99.90;;;;;;5112595;28;20240;-66
2023/12/21 09:58:08;;;;;;;11.37;10.97;;;10.20;99.90;;;;;;5109400;28;20217;-67
2023/12/21 10:00:35;;;;;;;10.83;10.43;;;10.20;99.90;;;;;;5115545;27;20672;-65
2023/12/21 10:03:02;;;;;;;11.10;10.70;;;10.20;99.90;;;;;;5121178;27;20236;-66
2023/12/21 10:05:29;;;;;;;10.23;9.93;;;10.30;99.90;;;;;;5117075;27;20257;-65
2023/12/21 10:07:58;;;;;;;10.60;10.30;;;10.30;99.90;;;;;;5119212;28;20226;-65
2023/12/21 10:10:24;;;;;;;11.30;10.90;;;10.30;99.90;;;;;;5121894;28;20198;-65
2023/12/21 10:12:52;;;;;;;11.03;10.63;;;10.30;99.90;;;;;;5116256;28;20711;-66
2023/12/21 10:15:19;;;;;;;11.10;10.70;;;10.30;99.90;;;;;;5116226;27;20207;-65
2023/12/21 10:17:46;;;;;;;10.70;10.40;;;10.40;99.90;;;;;;5112383;28;20214;-65
2023/12/21 10:20:13;;;;;;;11.33;10.93;;;10.40;99.90;;;;;;5118318;27;20222;-66
2023/12/21 10:22:40;;;;;;;10.63;10.33;;;10.40;99.90;;;;;;5111088;27;20205;-66
2023/12/21 10:25:09;;;;;;;11.10;10.70;;;10.40;99.90;;;;;;5119516;27;20202;-66
2023/12/21 10:27:36;;;;;;;11.47;11.07;;;10.40;99.90;;;;;;5111439;27;20221;-66
2023/12/21 10:30:04;;;;;;;11.10;10.70;;;10.40;99.90;;;;;;5114493;27;20350;-65
2023/12/21 10:32:31;;;;;;;10.90;10.50;;;10.40;99.90;;;;;;5115270;27;20297;-65
2023/12/21 10:34:59;;;;;;;10.90;10.50;;;10.40;99.90;;;;;;5116409;27;20670;-65
2023/12/21 10:37:26;;;;;;;11.07;10.67;;;10.40;99.90;;;;;;5112384;27;20197;-66
2023/12/21 10:39:56;;;;;;;10.90;10.50;;;10.40;99.90;;;;;;5116246;27;20222;-66
2023/12/21 10:42:24;;;;;;;10.70;10.40;;;10.40;99.90;;;;;;5118137;27;20209;-66
2023/12/21 10:44:51;;;;;;;11.03;10.63;;;10.50;99.90;;;;;;5112044;28;20205;-65
2023/12/21 10:47:18;;;;;;;11.07;10.67;;;10.50;99.90;;;;;;5115413;27;20225;-66
2023/12/21 10:49:45;;;;;;;10.85;10.45;;;10.50;99.90;;;;;;5113857;27;20225;-66
2023/12/21 10:52:13;;;;;;;10.32;10.02;;;10.50;99.90;;;;;;5117646;27;20205;-66
2023/12/21 10:54:42;;;;;;;11.13;10.73;;;10.50;99.90;;;;;;5112774;28;20198;-69
2023/12/21 10:57:09;;;;;;;10.63;10.33;;;10.50;99.90;;;;;;5118091;27;20200;-69
2023/12/21 10:59:38;;;;;;;12.10;11.70;;;10.60;99.90;;;;;;5113903;28;20377;-68
2023/12/21 11:02:07;;;;;;;10.50;10.20;;;10.70;99.90;;;;;;5113508;28;20210;-68
2023/12/21 11:04:35;;;;;;;11.27;10.87;;;10.70;99.90;;;;;;5112696;28;20205;-69
2023/12/21 11:07:04;;;;;;;11.63;11.23;;;10.70;99.90;;;;;;5116771;28;20202;-68
2023/12/21 11:09:32;;;;;;;11.13;10.73;;;10.70;99.90;;;;;;5125654;27;20226;-69
2023/12/21 11:11:59;;;;;;;11.80;11.40;;;10.70;99.90;;;;;;5124616;28;20210;-69
2023/12/21 11:14:26;;;;;;;11.30;10.90;;;10.60;99.90;;;;;;5112651;28;20584;-69
2023/12/21 11:16:58;;;;;;;11.40;11.00;;;10.70;99.90;;;;;;5119577;28;20251;-70
2023/12/21 11:19:30;;;;;;;11.30;10.90;;;10.70;99.90;;;;;;5117241;27;20225;-68
2023/12/21 11:21:59;;;;;;;11.27;10.87;;;10.70;99.90;;;;;;5117150;27;20874;-69
2023/12/21 11:24:26;;;;;;;10.90;10.53;;;10.70;99.90;;;;;;5114367;27;20209;-69
2023/12/21 11:26:53;;;;;;;11.57;11.17;;;10.80;99.90;;;;;;5112655;27;20204;-69
2023/12/21 11:29:27;;;;;;;11.47;11.07;;;10.80;99.90;;;;;;5110450;28;20627;-69
2023/12/21 11:31:55;;;;;;;11.40;11.00;;;10.80;99.90;;;;;;5110057;28;20205;-68
2023/12/21 11:34:24;;;;;;;10.97;10.57;;;10.80;99.90;;;;;;5110691;28;20209;-70
2023/12/21 11:36:57;;;;;;;11.23;10.83;;;10.90;99.90;;;;;;5110933;27;20213;-69
2023/12/21 11:39:25;;;;;;;11.30;10.90;;;10.80;99.90;;;;;;5108475;27;20592;-68
2023/12/21 11:41:58;;;;;;;11.57;11.17;;;10.90;99.90;;;;;;5106604;27;20556;-68
2023/12/21 11:44:25;;;;;;;11.23;10.83;;;10.80;99.90;;;;;;5122147;28;20186;-70
2023/12/21 11:46:59;;;;;;;11.70;11.30;;;10.90;99.90;;;;;;5115966;27;20224;-65
2023/12/21 11:49:26;;;;;;;11.33;10.93;;;10.90;99.90;;;;;;5105001;28;20657;-66
2023/12/21 11:51:53;;;;;;;12.33;11.93;;;10.90;99.90;;;;;;5109794;28;20290;-66
2023/12/21 11:54:22;;;;;;;11.60;11.20;;;10.90;99.90;;;;;;5104111;28;20202;-65
2023/12/21 11:56:49;;;;;;;12.80;12.40;;;10.90;99.90;;;;;;5109237;28;20698;-66
2023/12/21 11:59:16;;;;;;;12.40;12.00;;;10.90;99.90;;;;;;5111751;28;20226;-67
2023/12/21 12:01:46;;;;;;;12.33;11.93;;;10.90;99.90;;;;;;5115385;28;20237;-66
2023/12/21 12:04:15;;;;;;;12.23;11.83;;;10.90;99.90;;;;;;5111967;28;20209;-66
2023/12/21 12:06:43;;;;;;;12.13;11.73;;;10.90;99.90;;;;;;5109041;28;20206;-66
2023/12/21 12:09:10;;;;;;;12.30;11.90;;;10.80;99.90;;;;;;5109986;28;20234;-67
2023/12/21 12:11:37;;;;;;;12.70;12.30;;;10.80;99.90;;;;;;5111642;28;20202;-65
2023/12/21 12:14:04;;;;;;;12.60;12.20;;;10.80;99.90;;;;;;5112720;27;20210;-66
2023/12/21 12:16:32;;;;;;;12.33;11.93;;;10.80;99.90;;;;;;5109428;28;20206;-66
2023/12/21 12:18:59;;;;;;;12.70;12.30;;;10.80;99.90;;;;;;5109638;28;20245;-65
2023/12/21 12:21:28;;;;;;;12.37;11.97;;;10.80;99.90;;;;;;5109831;28;20221;-66
2023/12/21 12:23:55;;;;;;;11.63;11.23;;;10.80;99.90;;;;;;5109957;28;20233;-67
2023/12/21 12:26:23;;;;;;;11.43;11.03;;;10.80;99.90;;;;;;5115126;28;20260;-66
2023/12/21 12:28:50;;;;;;;11.50;11.10;;;10.80;99.90;;;;;;5110165;28;20222;-65
2023/12/21 12:31:18;;;;;;;11.60;11.20;;;10.70;99.90;;;;;;5116524;28;20229;-65
2023/12/21 12:33:45;;;;;;;11.90;11.50;;;10.70;99.90;;;;;;5115356;28;20274;-67